Time;durP1;ratioP1;P1;durP2;ratioP2;P2;SDS_P1;SDS_P2;PMS_P1;PMS_P2;Temp;Humidity;BMP_temperature;BMP_pressure;BME280_temperature;BME280_humidity;BME280_pressure;Samples;Min_cycle;Max_cycle;Signal;HPM_P1;HPM_P2
2021/08/18 00:00:07;;;;;;;0.00;0.00;;;14.20;99.90;;;;;;4874191;29;20126;-86
2021/08/18 00:02:34;;;;;;;0.00;0.00;;;14.20;99.90;;;;;;4862245;29;20038;-86
2021/08/18 00:05:01;;;;;;;0.00;0.00;;;14.20;99.90;;;;;;4862072;29;20045;-86
2021/08/18 00:07:29;;;;;;;0.00;0.00;;;14.20;99.90;;;;;;4847412;29;20073;-86
2021/08/18 00:09:57;;;;;;;0.00;0.00;;;14.10;99.90;;;;;;4847213;29;20041;-86
2021/08/18 00:12:24;;;;;;;0.00;0.00;;;14.10;99.90;;;;;;4862085;29;20053;-86
2021/08/18 00:14:50;;;;;;;0.00;0.00;;;14.10;99.90;;;;;;4861931;29;20053;-87
2021/08/18 00:17:18;;;;;;;0.38;0.25;;;14.00;99.90;;;;;;4847291;29;20074;-87
2021/08/18 00:19:45;;;;;;;0.10;0.10;;;14.00;99.90;;;;;;4877470;29;20041;-86
2021/08/18 00:22:12;;;;;;;0.00;0.00;;;14.00;99.90;;;;;;4861943;29;20044;-87
2021/08/18 00:24:39;;;;;;;0.00;0.00;;;13.90;99.90;;;;;;4874032;29;20042;-87
2021/08/18 00:27:06;;;;;;;0.00;0.00;;;13.90;99.90;;;;;;4836601;29;20050;-86
2021/08/18 00:29:33;;;;;;;0.00;0.00;;;13.80;99.90;;;;;;4837070;29;20403;-86
2021/08/18 00:32:00;;;;;;;0.08;0.08;;;13.80;99.90;;;;;;4831088;29;20046;-86
2021/08/18 00:34:27;;;;;;;0.00;0.00;;;13.90;99.90;;;;;;4860960;29;20038;-87
2021/08/18 00:36:54;;;;;;;0.00;0.00;;;13.80;99.90;;;;;;4830997;29;20102;-87
2021/08/18 00:39:21;;;;;;;0.00;0.00;;;13.80;99.90;;;;;;4846748;29;20042;-86
2021/08/18 00:41:48;;;;;;;0.00;0.00;;;13.80;99.90;;;;;;4816670;29;20049;-86
2021/08/18 00:44:15;;;;;;;0.00;0.00;;;13.80;99.90;;;;;;4843168;29;20411;-87
2021/08/18 00:46:57;;;;;;;0.00;0.00;;;13.70;99.90;;;;;;4843426;29;20042;-87
2021/08/18 00:49:24;;;;;;;0.00;0.00;;;13.70;99.90;;;;;;4858413;29;20519;-86
2021/08/18 00:51:53;;;;;;;0.00;0.00;;;13.70;99.90;;;;;;4843270;29;20399;-86
2021/08/18 00:54:20;;;;;;;0.00;0.00;;;13.70;99.90;;;;;;4843436;29;20187;-87
2021/08/18 00:56:48;;;;;;;0.00;0.00;;;13.70;99.90;;;;;;4858138;29;20483;-86
2021/08/18 00:59:15;;;;;;;0.00;0.00;;;13.70;99.90;;;;;;4857956;29;20043;-86
2021/08/18 01:01:42;;;;;;;0.00;0.00;;;13.60;99.90;;;;;;4858277;29;20069;-86
2021/08/18 01:04:10;;;;;;;0.00;0.00;;;13.60;99.90;;;;;;4857790;29;20043;-86
2021/08/18 01:06:40;;;;;;;0.00;0.00;;;13.60;99.90;;;;;;4842930;29;20050;-86
2021/08/18 01:09:08;;;;;;;0.10;0.10;;;13.60;99.90;;;;;;4842853;29;20509;-86
2021/08/18 01:11:36;;;;;;;0.00;0.00;;;13.60;99.90;;;;;;4858031;29;20054;-86
2021/08/18 01:14:04;;;;;;;0.00;0.00;;;13.70;99.90;;;;;;4856903;29;20057;-86
2021/08/18 01:16:39;;;;;;;0.00;0.00;;;13.60;99.90;;;;;;4842988;29;20053;-86
2021/08/18 01:19:10;;;;;;;0.00;0.00;;;13.60;99.90;;;;;;4857847;29;20046;-86
2021/08/18 01:21:39;;;;;;;0.00;0.00;;;13.60;99.90;;;;;;4842913;29;20145;-86
2021/08/18 01:24:08;;;;;;;0.00;0.00;;;13.70;99.90;;;;;;4857487;29;20039;-86
2021/08/18 01:26:36;;;;;;;0.00;0.00;;;13.70;99.90;;;;;;4842857;29;20050;-87
2021/08/18 01:29:04;;;;;;;0.00;0.00;;;13.70;99.90;;;;;;4827804;29;20488;-87
2021/08/18 01:31:31;;;;;;;0.00;0.00;;;13.70;99.90;;;;;;4842682;29;20042;-86
2021/08/18 01:34:00;;;;;;;0.00;0.00;;;13.70;99.90;;;;;;4857702;29;20042;-87
2021/08/18 01:36:28;;;;;;;0.00;0.00;;;13.70;99.90;;;;;;4842878;29;20047;-86
2021/08/18 01:39:07;;;;;;;0.00;0.00;;;13.80;99.90;;;;;;4857652;29;20094;-86
2021/08/18 01:41:34;;;;;;;0.00;0.00;;;13.80;99.90;;;;;;4842524;29;20140;-87
2021/08/18 01:44:01;;;;;;;0.00;0.00;;;13.80;99.90;;;;;;4858510;29;20140;-87
2021/08/18 01:46:28;;;;;;;0.00;0.00;;;13.80;99.90;;;;;;4845835;29;20054;-87
2021/08/18 01:48:56;;;;;;;0.00;0.00;;;13.80;99.90;;;;;;4845679;29;20038;-86
2021/08/18 01:51:23;;;;;;;0.00;0.00;;;13.80;99.90;;;;;;4845287;29;20042;-87
2021/08/18 01:53:50;;;;;;;0.30;0.15;;;13.80;99.90;;;;;;4860863;29;20061;-86
2021/08/18 01:56:17;;;;;;;0.00;0.00;;;13.80;99.90;;;;;;4844831;29;20517;-87
2021/08/18 01:58:44;;;;;;;0.00;0.00;;;13.90;99.90;;;;;;4845367;29;20049;-86
2021/08/18 02:01:14;;;;;;;0.00;0.00;;;13.90;99.90;;;;;;4844984;29;20125;-86
2021/08/18 02:03:41;;;;;;;0.15;0.13;;;13.90;99.90;;;;;;4860292;29;20042;-85
2021/08/18 02:06:08;;;;;;;0.00;0.00;;;13.90;99.90;;;;;;4844972;29;20046;-86
2021/08/18 02:08:35;;;;;;;0.08;0.08;;;13.90;99.90;;;;;;4830231;29;20133;-86
2021/08/18 02:11:02;;;;;;;0.00;0.00;;;14.00;99.90;;;;;;4829844;29;20042;-87
2021/08/18 02:13:31;;;;;;;0.00;0.00;;;13.90;99.90;;;;;;4830200;29;20066;-86
2021/08/18 02:15:58;;;;;;;0.00;0.00;;;13.90;99.90;;;;;;4860284;29;20042;-86
2021/08/18 02:18:25;;;;;;;0.00;0.00;;;13.90;99.90;;;;;;4844772;29;20037;-86
2021/08/18 02:20:52;;;;;;;0.00;0.00;;;13.90;99.90;;;;;;4844992;29;20407;-86
2021/08/18 02:23:19;;;;;;;0.00;0.00;;;13.90;99.90;;;;;;4844623;29;20044;-87
2021/08/18 02:25:46;;;;;;;0.00;0.00;;;13.90;99.90;;;;;;4845021;29;20042;-86
2021/08/18 02:28:13;;;;;;;0.00;0.00;;;13.80;99.90;;;;;;4844733;29;20038;-87
2021/08/18 02:30:40;;;;;;;0.00;0.00;;;13.70;99.90;;;;;;4860139;29;20086;-86
2021/08/18 02:33:08;;;;;;;0.00;0.00;;;13.80;99.90;;;;;;4844517;29;20042;-86
2021/08/18 02:35:36;;;;;;;0.00;0.00;;;13.70;99.90;;;;;;4829878;29;20050;-86
2021/08/18 02:38:04;;;;;;;0.00;0.00;;;13.70;99.90;;;;;;4844558;29;20042;-88
2021/08/18 02:40:31;;;;;;;0.00;0.00;;;13.70;99.90;;;;;;4829922;29;20402;-86
2021/08/18 02:42:58;;;;;;;0.00;0.00;;;13.70;99.90;;;;;;4844887;29;20046;-87
2021/08/18 02:45:27;;;;;;;0.00;0.00;;;13.80;99.90;;;;;;4859602;29;20085;-87
2021/08/18 02:47:54;;;;;;;0.05;0.05;;;13.80;99.90;;;;;;4874907;29;20045;-86
2021/08/18 02:50:23;;;;;;;0.00;0.00;;;13.80;99.90;;;;;;4844430;29;20046;-86
2021/08/18 02:52:50;;;;;;;0.00;0.00;;;13.80;99.90;;;;;;4859833;29;20117;-85
2021/08/18 02:55:18;;;;;;;0.00;0.00;;;13.90;99.90;;;;;;4844461;29;20170;-86
2021/08/18 02:57:45;;;;;;;0.10;0.10;;;13.90;99.90;;;;;;4859746;29;20053;-86
2021/08/18 03:00:12;;;;;;;0.00;0.00;;;13.90;99.90;;;;;;4829300;29;20479;-86
2021/08/18 03:02:39;;;;;;;0.00;0.00;;;13.90;99.90;;;;;;4859617;29;20057;-86
2021/08/18 03:05:07;;;;;;;0.20;0.10;;;13.90;99.90;;;;;;4844217;29;20479;-87
2021/08/18 03:07:34;;;;;;;0.00;0.00;;;13.90;99.90;;;;;;4829695;29;20046;-86
2021/08/18 03:10:01;;;;;;;0.00;0.00;;;13.90;99.90;;;;;;4844631;29;20421;-86
2021/08/18 03:12:27;;;;;;;0.00;0.00;;;14.00;99.90;;;;;;4829164;29;20053;-87
2021/08/18 03:14:55;;;;;;;0.00;0.00;;;14.00;99.90;;;;;;4844535;29;20044;-87
2021/08/18 03:17:22;;;;;;;0.00;0.00;;;14.00;99.90;;;;;;4844040;29;20113;-87
2021/08/18 03:19:48;;;;;;;0.00;0.00;;;14.00;99.90;;;;;;4844292;29;20050;-86
2021/08/18 03:22:16;;;;;;;0.00;0.00;;;14.00;99.90;;;;;;4829489;29;20044;-87
2021/08/18 03:24:43;;;;;;;0.00;0.00;;;14.00;99.90;;;;;;4844501;29;20384;-87
2021/08/18 03:27:09;;;;;;;0.03;0.03;;;14.00;99.90;;;;;;4844322;29;20448;-87
2021/08/18 03:29:36;;;;;;;0.00;0.00;;;14.10;99.90;;;;;;4859965;29;20046;-87
2021/08/18 03:32:04;;;;;;;0.00;0.00;;;14.10;99.90;;;;;;4859482;29;20041;-86
2021/08/18 03:34:31;;;;;;;0.80;0.57;;;14.10;99.90;;;;;;4828965;29;20086;-86
2021/08/18 03:36:57;;;;;;;0.00;0.00;;;14.10;99.90;;;;;;4831568;29;20483;-86
2021/08/18 03:39:24;;;;;;;0.00;0.00;;;14.10;99.90;;;;;;4832277;29;20046;-86
2021/08/18 03:41:51;;;;;;;0.00;0.00;;;14.10;99.90;;;;;;4845735;29;20031;-86
2021/08/18 03:44:18;;;;;;;0.10;0.10;;;14.20;99.90;;;;;;4844560;29;20061;-86
2021/08/18 03:46:47;;;;;;;0.00;0.00;;;14.20;99.90;;;;;;4833838;29;20485;-86
2021/08/18 03:49:13;;;;;;;0.00;0.00;;;14.10;99.90;;;;;;4832679;29;20046;-87
2021/08/18 03:51:40;;;;;;;0.20;0.10;;;14.20;99.90;;;;;;4835709;29;20114;-86
2021/08/18 03:54:07;;;;;;;0.00;0.00;;;14.20;99.90;;;;;;4818860;29;20046;-86
2021/08/18 03:56:34;;;;;;;0.00;0.00;;;14.20;99.90;;;;;;4829205;29;20035;-86
2021/08/18 03:59:00;;;;;;;0.00;0.00;;;14.20;99.90;;;;;;4833249;29;20047;-86
2021/08/18 04:01:27;;;;;;;0.00;0.00;;;14.20;99.90;;;;;;4823070;29;20069;-87
2021/08/18 04:03:54;;;;;;;0.00;0.00;;;14.30;99.90;;;;;;4826897;29;20056;-86
2021/08/18 04:06:21;;;;;;;0.65;0.28;;;14.20;99.90;;;;;;4827163;29;20074;-87
2021/08/18 04:08:48;;;;;;;0.00;0.00;;;14.20;99.90;;;;;;4829108;29;20125;-86
2021/08/18 04:11:14;;;;;;;0.00;0.00;;;14.30;99.90;;;;;;4843766;29;20073;-87
2021/08/18 04:13:41;;;;;;;0.00;0.00;;;14.30;99.90;;;;;;4828910;29;20542;-86
2021/08/18 04:16:09;;;;;;;0.00;0.00;;;14.20;99.90;;;;;;4828851;29;20042;-86
2021/08/18 04:18:35;;;;;;;0.00;0.00;;;14.30;99.90;;;;;;4828476;29;20072;-86
2021/08/18 04:21:02;;;;;;;0.00;0.00;;;14.20;99.90;;;;;;4828742;29;20444;-87
2021/08/18 04:23:30;;;;;;;0.00;0.00;;;14.20;99.90;;;;;;4828221;29;20543;-87
2021/08/18 04:25:56;;;;;;;0.00;0.00;;;14.30;99.90;;;;;;4828066;29;20046;-86
2021/08/18 04:28:23;;;;;;;0.00;0.00;;;14.30;99.90;;;;;;4812983;29;20137;-87
2021/08/18 04:30:53;;;;;;;0.00;0.00;;;14.30;99.90;;;;;;4828648;29;20042;-87
2021/08/18 04:33:19;;;;;;;0.00;0.00;;;14.30;99.90;;;;;;4827397;29;20060;-87
2021/08/18 04:35:46;;;;;;;0.00;0.00;;;14.30;99.90;;;;;;4827675;29;20415;-86
2021/08/18 04:38:13;;;;;;;0.00;0.00;;;14.30;99.90;;;;;;4827680;29;20038;-87
2021/08/18 04:40:40;;;;;;;0.00;0.00;;;14.30;99.90;;;;;;4827476;29;20062;-87
2021/08/18 04:43:12;;;;;;;0.00;0.00;;;14.30;99.90;;;;;;4813097;29;20133;-87
2021/08/18 04:45:40;;;;;;;0.00;0.00;;;14.30;99.90;;;;;;4841922;29;20519;-87
2021/08/18 04:48:07;;;;;;;0.00;0.00;;;14.30;99.90;;;;;;4841863;29;20098;-86
2021/08/18 04:50:34;;;;;;;0.00;0.00;;;14.30;99.90;;;;;;4828141;29;20493;-86
2021/08/18 04:53:11;;;;;;;0.57;0.22;;;14.30;99.90;;;;;;4828540;29;20042;-86
2021/08/18 04:55:44;;;;;;;0.00;0.00;;;14.30;99.90;;;;;;4859432;29;20042;-87
2021/08/18 04:58:11;;;;;;;0.00;0.00;;;14.30;99.90;;;;;;4828444;29;20046;-86
2021/08/18 05:00:42;;;;;;;0.00;0.00;;;14.40;99.90;;;;;;4829296;29;20050;-86
2021/08/18 05:03:14;;;;;;;0.00;0.00;;;14.40;99.90;;;;;;4829529;29;20042;-87
2021/08/18 05:05:42;;;;;;;0.00;0.00;;;14.40;99.90;;;;;;4843079;29;20053;-88
2021/08/18 05:08:11;;;;;;;0.00;0.00;;;14.40;99.90;;;;;;4829159;29;20038;-89
2021/08/18 05:10:38;;;;;;;0.00;0.00;;;14.40;99.90;;;;;;4843060;29;20041;-87
2021/08/18 05:13:05;;;;;;;0.00;0.00;;;14.40;99.90;;;;;;4843581;29;20117;-88
2021/08/18 05:15:32;;;;;;;0.00;0.00;;;14.40;99.90;;;;;;4828215;29;20134;-87
2021/08/18 05:18:00;;;;;;;0.00;0.00;;;14.50;99.90;;;;;;4828608;29;20063;-87
2021/08/18 05:20:27;;;;;;;0.00;0.00;;;14.50;99.90;;;;;;4827886;29;20435;-87
2021/08/18 05:22:54;;;;;;;0.00;0.00;;;14.50;99.90;;;;;;4843176;29;20066;-87
2021/08/18 05:25:41;;;;;;;0.00;0.00;;;14.60;99.90;;;;;;4820645;29;20057;-87
2021/08/18 05:28:13;;;;;;;0.00;0.00;;;14.50;99.90;;;;;;4827958;29;20042;-87
2021/08/18 05:30:57;;;;;;;0.00;0.00;;;14.60;99.90;;;;;;4838944;29;20045;-87
2021/08/18 05:33:50;;;;;;;0.00;0.00;;;14.60;99.90;;;;;;4833463;29;20118;-96
2021/08/18 05:36:30;;;;;;;0.00;0.00;;;14.70;99.90;;;;;;4819313;29;20070;-87
2021/08/18 05:38:58;;;;;;;0.00;0.00;;;14.70;99.90;;;;;;4839484;29;20057;-91
2021/08/18 05:41:25;;;;;;;0.00;0.00;;;14.70;99.90;;;;;;4824519;29;20492;-90
2021/08/18 05:43:58;;;;;;;0.00;0.00;;;14.80;99.90;;;;;;4826692;29;20476;-93
2021/08/18 05:46:25;;;;;;;0.00;0.00;;;14.80;99.90;;;;;;4843321;29;20103;-91
2021/08/18 05:48:51;;;;;;;0.00;0.00;;;14.80;99.90;;;;;;4830658;29;20042;-91
2021/08/18 05:51:18;;;;;;;0.00;0.00;;;14.80;99.90;;;;;;4813125;29;20050;-87
2021/08/18 05:53:49;;;;;;;0.00;0.00;;;14.90;99.90;;;;;;4812604;29;20045;-87
2021/08/18 05:56:19;;;;;;;0.00;0.00;;;15.00;99.90;;;;;;4843163;29;20468;-88
2021/08/18 05:58:46;;;;;;;0.00;0.00;;;15.00;99.90;;;;;;4842273;29;20172;-90
2021/08/18 06:01:13;;;;;;;0.00;0.00;;;15.00;99.90;;;;;;4842688;29;20050;-88
2021/08/18 06:03:40;;;;;;;0.00;0.00;;;15.00;99.90;;;;;;4857881;29;20042;-92
2021/08/18 06:06:07;;;;;;;0.00;0.00;;;15.10;99.90;;;;;;4828089;29;20071;-83
2021/08/18 06:08:36;;;;;;;0.00;0.00;;;15.10;99.90;;;;;;4843739;29;20046;-93
2021/08/18 06:11:03;;;;;;;0.00;0.00;;;15.10;99.90;;;;;;4828993;29;20068;-90
2021/08/18 06:13:41;;;;;;;0.52;0.22;;;15.10;99.90;;;;;;4857866;29;20042;-91
2021/08/18 08:27:18;;;;;;;0.20;0.10;;;16.80;99.90;;;;;;6167565;22;1338998;-82
2021/08/18 08:29:45;;;;;;;0.00;0.00;;;16.90;99.90;;;;;;6293507;22;20015;-85
2021/08/18 08:32:12;;;;;;;0.15;0.15;;;16.90;99.90;;;;;;6295275;22;20014;-87
2021/08/18 08:34:39;;;;;;;0.00;0.00;;;16.90;99.90;;;;;;6293779;22;20014;-86
2021/08/18 08:37:06;;;;;;;0.00;0.00;;;16.90;99.90;;;;;;6268865;22;20011;-85
2021/08/18 08:39:33;;;;;;;0.00;0.00;;;16.80;99.90;;;;;;6294156;22;20309;-84
2021/08/18 08:42:03;;;;;;;0.00;0.00;;;16.80;99.90;;;;;;6268831;22;20021;-84
2021/08/18 08:44:32;;;;;;;0.10;0.10;;;16.80;99.90;;;;;;6294268;22;20046;-84
2021/08/18 08:46:59;;;;;;;0.22;0.20;;;16.70;99.90;;;;;;6268290;22;20366;-81
2021/08/18 08:49:26;;;;;;;0.08;0.08;;;16.80;99.90;;;;;;6319879;22;20014;-85
2021/08/18 08:51:54;;;;;;;0.10;0.10;;;16.70;99.90;;;;;;6243791;22;20500;-84
2021/08/18 08:54:21;;;;;;;0.10;0.10;;;16.70;99.90;;;;;;6269539;22;20007;-86
2021/08/18 08:56:48;;;;;;;0.10;0.10;;;16.80;99.90;;;;;;6294161;22;20007;-82
2021/08/18 08:59:15;;;;;;;0.00;0.00;;;16.80;99.90;;;;;;6294435;22;20018;-82
2021/08/18 09:02:06;;;;;;;0.10;0.10;;;16.90;99.90;;;;;;6267476;22;20011;-85
2021/08/18 09:04:44;;;;;;;0.00;0.00;;;17.10;99.90;;;;;;6294375;22;20462;-90
2021/08/18 09:07:23;;;;;;;0.00;0.00;;;17.10;99.90;;;;;;6293350;22;20339;-87
2021/08/18 09:09:57;;;;;;;0.00;0.00;;;17.20;99.90;;;;;;6278069;22;20023;-85
2021/08/18 09:12:30;;;;;;;0.00;0.00;;;17.20;99.90;;;;;;6268043;22;20077;-81
2021/08/18 09:14:57;;;;;;;0.10;0.00;;;17.20;99.90;;;;;;6293036;22;20015;-82
2021/08/18 09:17:36;;;;;;;0.00;0.00;;;17.20;99.90;;;;;;6293484;22;20436;-83
2021/08/18 09:20:08;;;;;;;0.00;0.00;;;17.10;99.90;;;;;;6303343;22;20007;-83
2021/08/18 09:22:38;;;;;;;0.28;0.10;;;17.00;99.90;;;;;;6293151;22;20019;-86
2021/08/18 09:25:14;;;;;;;0.20;0.20;;;17.00;99.90;;;;;;6293794;22;20012;-84
2021/08/18 09:27:42;;;;;;;0.00;0.00;;;17.10;99.90;;;;;;6293081;22;20008;-80
2021/08/18 09:30:22;;;;;;;0.00;0.00;;;17.10;99.90;;;;;;6270086;22;20406;-92
2021/08/18 09:33:15;;;;;;;0.00;0.00;;;17.10;99.90;;;;;;6334901;22;20420;-94
2021/08/18 09:35:43;;;;;;;0.15;0.13;;;17.30;99.90;;;;;;6271869;22;20038;-90
2021/08/18 09:38:15;;;;;;;0.00;0.00;;;17.40;99.90;;;;;;6271836;22;20373;-89
2021/08/18 09:40:47;;;;;;;0.00;0.00;;;17.60;99.90;;;;;;6245318;22;20037;-87
2021/08/18 09:43:26;;;;;;;0.05;0.05;;;17.80;99.90;;;;;;6270434;22;20019;-91
2021/08/18 09:45:59;;;;;;;0.10;0.00;;;18.00;99.90;;;;;;6270687;22;20019;-88
2021/08/18 09:48:31;;;;;;;0.00;0.00;;;18.20;99.90;;;;;;6270264;22;20031;-92
2021/08/18 09:51:08;;;;;;;0.20;0.20;;;18.30;99.90;;;;;;6272781;22;20011;-85
2021/08/18 09:53:41;;;;;;;0.17;0.15;;;18.30;99.90;;;;;;6295031;22;20012;-88
2021/08/18 09:56:14;;;;;;;0.10;0.10;;;18.40;99.90;;;;;;6270823;22;20012;-87
2021/08/18 09:58:57;;;;;;;0.10;0.10;;;18.40;99.90;;;;;;6270482;22;20077;-89
2021/08/18 10:01:24;;;;;;;0.10;0.10;;;18.30;99.90;;;;;;6295008;22;20004;-89
2021/08/18 10:03:54;;;;;;;0.20;0.13;;;18.20;99.90;;;;;;6243853;22;20035;-87
2021/08/18 10:06:21;;;;;;;0.00;0.00;;;18.20;99.90;;;;;;6295209;22;20030;-87
2021/08/18 10:08:55;;;;;;;0.00;0.00;;;18.20;99.90;;;;;;6294158;22;20439;-87
2021/08/18 10:11:23;;;;;;;0.00;0.00;;;18.20;99.90;;;;;;6305683;22;20022;-87
2021/08/18 10:13:51;;;;;;;0.52;0.43;;;18.30;99.90;;;;;;6244549;22;20012;-87
2021/08/18 10:16:18;;;;;;;0.00;0.00;;;18.40;99.90;;;;;;6270511;22;20091;-88
2021/08/18 10:18:55;;;;;;;0.13;0.10;;;18.40;99.90;;;;;;6295727;22;20007;-90
2021/08/18 10:21:24;;;;;;;0.00;0.00;;;18.50;99.90;;;;;;6296618;22;20031;-85
2021/08/18 10:24:03;;;;;;;0.32;0.10;;;18.40;99.90;;;;;;6295947;22;20024;-89
2021/08/18 10:26:33;;;;;;;0.03;0.03;;;18.60;99.90;;;;;;6292709;22;20018;-85
2021/08/18 10:29:22;;;;;;;1.98;0.30;;;18.60;99.90;;;;;;6268988;22;20031;-88
2021/08/18 10:31:49;;;;;;;12.30;1.30;;;18.40;99.90;;;;;;6269486;22;20012;-90
2021/08/18 10:34:22;;;;;;;1.25;0.40;;;18.80;99.90;;;;;;6269080;22;20018;-88
2021/08/18 10:36:53;;;;;;;0.20;0.20;;;18.90;99.90;;;;;;6294754;22;20038;-89
2021/08/18 10:39:25;;;;;;;0.10;0.10;;;18.80;99.90;;;;;;6294920;22;20015;-85
2021/08/18 10:42:17;;;;;;;0.57;0.57;;;19.00;99.90;;;;;;6322492;22;20023;-87
2021/08/18 10:44:46;;;;;;;0.13;0.13;;;19.00;99.90;;;;;;6295183;22;20450;-86
2021/08/18 10:47:21;;;;;;;0.00;0.00;;;18.90;99.90;;;;;;6294450;22;20035;-87
2021/08/18 10:50:24;;;;;;;0.50;0.28;;;18.80;99.90;;;;;;6294258;22;20018;-88
2021/08/18 10:52:52;;;;;;;0.20;0.20;;;18.90;99.90;;;;;;6268482;22;20096;-87
2021/08/18 10:55:33;;;;;;;0.00;0.00;;;18.90;99.90;;;;;;6269527;22;20436;-88
2021/08/18 10:58:05;;;;;;;0.15;0.10;;;18.90;99.90;;;;;;6268927;22;20432;-91
2021/08/18 11:00:41;;;;;;;0.10;0.10;;;19.30;99.90;;;;;;6269651;22;20024;-88
2021/08/18 11:03:12;;;;;;;0.22;0.20;;;19.00;99.90;;;;;;6293691;22;20008;-89
2021/08/18 11:05:39;;;;;;;0.10;0.10;;;19.10;99.90;;;;;;6293799;22;20027;-92
2021/08/18 11:08:20;;;;;;;0.13;0.08;;;19.20;99.90;;;;;;6268770;22;20012;-90
2021/08/18 11:10:50;;;;;;;0.30;0.15;;;19.20;99.90;;;;;;6294561;22;20042;-86
2021/08/18 11:13:33;;;;;;;0.30;0.30;;;19.20;99.90;;;;;;6268998;22;20015;-88
2021/08/18 11:16:19;;;;;;;0.10;0.10;;;19.20;99.90;;;;;;6305297;22;20012;-94
2021/08/18 11:18:47;;;;;;;;;;;19.40;99.90;;;;;;6269741;22;20018;-88
2021/08/18 11:21:16;;;;;;;1.35;0.30;;;19.50;99.90;;;;;;6268233;22;19926;-86
2021/08/18 11:23:49;;;;;;;0.17;0.17;;;19.60;99.90;;;;;;6270150;22;20014;-87
2021/08/18 11:26:19;;;;;;;0.17;0.17;;;19.70;99.90;;;;;;6243491;22;20011;-85
2021/08/18 11:28:54;;;;;;;0.10;0.10;;;19.70;99.90;;;;;;6237326;23;20012;-86
2021/08/18 11:31:30;;;;;;;0.32;0.22;;;19.70;99.90;;;;;;6237928;23;20047;-87
2021/08/18 11:33:58;;;;;;;0.00;0.00;;;19.70;99.90;;;;;;6262778;23;20016;-84
2021/08/18 11:36:25;;;;;;;0.00;0.00;;;19.60;99.90;;;;;;6263359;23;20008;-85
2021/08/18 11:39:04;;;;;;;0.05;0.05;;;19.50;99.90;;;;;;6212454;23;20507;-86
2021/08/18 11:41:43;;;;;;;0.75;0.57;;;19.50;99.90;;;;;;6264008;23;20040;-86
2021/08/18 11:44:26;;;;;;;0.10;0.10;;;19.40;99.90;;;;;;6274887;23;20070;-87
2021/08/18 11:46:54;;;;;;;0.60;0.47;;;19.50;99.90;;;;;;6240358;23;20019;-86
2021/08/18 11:49:24;;;;;;;0.10;0.10;;;19.60;99.90;;;;;;6240759;23;20425;-87
2021/08/18 11:51:51;;;;;;;0.22;0.20;;;19.70;99.90;;;;;;6238442;23;20018;-85
2021/08/18 11:54:24;;;;;;;1.85;0.40;;;19.70;99.90;;;;;;6239719;23;20087;-89
2021/08/18 11:57:07;;;;;;;0.20;0.20;;;19.60;99.90;;;;;;6265149;23;20475;-87
2021/08/18 11:59:36;;;;;;;0.28;0.20;;;19.70;99.90;;;;;;6240358;23;20039;-87
2021/08/18 12:02:04;;;;;;;1.38;0.50;;;19.80;99.90;;;;;;6239624;23;20023;-87
2021/08/18 12:04:31;;;;;;;0.47;0.25;;;19.70;99.90;;;;;;6190237;23;20012;-87
2021/08/18 12:07:05;;;;;;;0.20;0.17;;;19.70;99.90;;;;;;6239015;23;20043;-89
2021/08/18 12:09:33;;;;;;;0.13;0.13;;;19.70;99.90;;;;;;6239876;23;20048;-89
2021/08/18 12:12:09;;;;;;;0.43;0.38;;;19.70;99.90;;;;;;6240465;23;20333;-90
2021/08/18 12:14:40;;;;;;;0.15;0.15;;;19.70;99.90;;;;;;6239622;23;20019;-87
2021/08/18 12:17:07;;;;;;;0.13;0.13;;;19.70;99.90;;;;;;6240163;23;20143;-86
2021/08/18 12:19:38;;;;;;;0.10;0.10;;;19.70;99.90;;;;;;6240291;23;20016;-86
2021/08/18 12:22:23;;;;;;;0.10;0.10;;;19.60;99.90;;;;;;6216391;23;20306;-89
2021/08/18 12:24:55;;;;;;;0.00;0.00;;;19.60;99.90;;;;;;6240613;23;20012;-87
2021/08/18 12:27:27;;;;;;;0.10;0.10;;;19.50;99.90;;;;;;6224586;23;20016;-89
2021/08/18 12:30:52;;;;;;;0.00;0.00;;;19.40;99.90;;;;;;6265618;23;20020;-88
2021/08/18 12:34:13;;;;;;;0.20;0.20;;;19.60;99.90;;;;;;6137548;23;20017;-88
2021/08/18 12:36:40;;;;;;;0.10;0.10;;;19.30;99.90;;;;;;6199865;23;20041;-88
2021/08/18 12:39:15;;;;;;;0.00;0.00;;;19.30;99.90;;;;;;6246375;23;20337;-93
2021/08/18 13:53:21;;;;;;;0.20;0.20;;;19.60;99.90;;;;;;6313275;22;1311505;-87
2021/08/18 13:55:48;;;;;;;0.00;0.00;;;19.70;99.90;;;;;;6281786;22;20040;-87
2021/08/18 13:58:16;;;;;;;0.10;0.10;;;19.80;99.90;;;;;;6270547;23;20015;-90
2021/08/18 14:00:42;;;;;;;0.10;0.10;;;19.80;99.90;;;;;;6246529;23;20058;-88
2021/08/18 14:03:10;;;;;;;0.35;0.35;;;19.80;99.90;;;;;;6272243;23;20016;-90
2021/08/18 14:05:37;;;;;;;0.47;0.30;;;19.70;99.90;;;;;;6248627;23;20452;-94
2021/08/18 14:08:11;;;;;;;0.20;0.20;;;19.80;99.90;;;;;;6274086;23;20019;-94
2021/08/18 14:10:42;;;;;;;0.10;0.08;;;19.70;99.90;;;;;;6301095;23;20016;-96
2021/08/18 14:13:11;;;;;;;0.65;0.35;;;19.70;99.90;;;;;;6272214;23;20099;-94
2021/08/18 14:15:38;;;;;;;0.40;0.35;;;19.60;99.90;;;;;;6273030;23;20436;-90
2021/08/18 14:18:06;;;;;;;0.45;0.20;;;19.60;99.90;;;;;;6272934;23;20015;-94
2021/08/18 14:20:33;;;;;;;0.20;0.10;;;19.60;99.90;;;;;;6272395;23;20019;-91
2021/08/18 14:23:02;;;;;;;1.90;0.60;;;19.50;99.90;;;;;;6296503;22;20325;-96
2021/08/18 14:25:29;;;;;;;0.30;0.10;;;19.60;99.90;;;;;;6270878;23;20023;-93
2021/08/18 14:27:56;;;;;;;0.20;0.20;;;19.50;99.90;;;;;;6245795;23;20358;-89
2021/08/18 14:30:23;;;;;;;0.30;0.22;;;19.50;99.90;;;;;;6296571;23;20019;-92
2021/08/18 14:32:50;;;;;;;0.05;0.05;;;19.40;99.90;;;;;;6273156;23;20337;-96
2021/08/18 14:35:17;;;;;;;0.10;0.10;;;19.30;99.90;;;;;;6244853;23;20012;-94
2021/08/18 14:37:45;;;;;;;0.70;0.45;;;19.30;99.90;;;;;;6302173;23;20000;-96
2021/08/18 14:44:02;;;;;;;0.55;0.40;;;19.20;99.90;;;;;;6298053;23;20031;-96
2021/08/18 14:47:06;;;;;;;0.10;0.10;;;19.20;99.90;;;;;;6297719;23;20333;-96
2021/08/18 14:49:42;;;;;;;0.45;0.38;;;19.20;99.90;;;;;;6246777;23;20062;-96
2021/08/18 14:52:12;;;;;;;0.57;0.35;;;19.30;99.90;;;;;;6278364;23;20086;-94
2021/08/18 14:54:42;;;;;;;0.40;0.38;;;19.40;99.90;;;;;;6234906;23;20021;-92
2021/08/18 14:57:18;;;;;;;0.55;0.40;;;19.40;99.90;;;;;;6210209;23;20016;-91
2021/08/18 14:59:49;;;;;;;0.52;0.38;;;19.40;99.90;;;;;;6210378;23;20437;-93
2021/08/18 15:02:30;;;;;;;0.30;0.30;;;19.40;99.90;;;;;;6259515;23;20036;-92
2021/08/18 15:04:58;;;;;;;0.10;0.10;;;19.40;99.90;;;;;;6259514;23;20017;-90
2021/08/18 15:07:26;;;;;;;1.90;0.60;;;19.40;99.90;;;;;;6234912;23;20008;-91
2021/08/18 15:10:05;;;;;;;1.52;0.47;;;19.30;99.90;;;;;;6259082;23;20009;-95
2021/08/18 15:12:33;;;;;;;0.20;0.20;;;19.30;99.90;;;;;;6236499;23;20095;-94
2021/08/18 15:19:26;;;;;;;0.17;0.17;;;19.20;99.90;;;;;;6145708;23;20093;-96
2021/08/18 15:26:22;;;;;;;;;;;;;;;;;;;;;
2021/08/18 15:40:48;;;;;;;;;;;;;;;;;;;;;
2021/08/18 17:34:00;;;;;;;0.10;0.10;;;18.30;99.90;;;;;;6288555;22;20048;-87
2021/08/18 17:36:28;;;;;;;0.05;0.05;;;18.30;99.90;;;;;;6242712;22;20436;-87
2021/08/18 17:38:55;;;;;;;0.00;0.00;;;18.20;99.90;;;;;;6218715;22;20081;-88
2021/08/18 17:41:22;;;;;;;0.10;0.10;;;18.10;99.90;;;;;;6242002;22;20012;-86
2021/08/18 17:43:50;;;;;;;0.00;0.00;;;18.10;99.90;;;;;;6268832;22;20336;-92
2021/08/18 17:46:21;;;;;;;0.30;0.28;;;18.10;99.90;;;;;;6269133;22;20007;-94
2021/08/18 17:48:47;;;;;;;0.10;0.10;;;18.00;99.90;;;;;;6243296;22;20018;-92
2021/08/18 17:51:15;;;;;;;0.28;0.22;;;18.00;99.90;;;;;;6257395;23;20008;-85
2021/08/18 17:53:41;;;;;;;0.13;0.10;;;18.00;99.90;;;;;;6261897;23;20310;-83
2021/08/18 17:56:08;;;;;;;0.00;0.00;;;17.90;99.90;;;;;;6287215;23;20012;-85
2021/08/18 17:58:36;;;;;;;0.00;0.00;;;17.80;99.90;;;;;;6225474;23;20318;-87
2021/08/18 18:01:04;;;;;;;0.08;0.03;;;17.80;99.90;;;;;;6237313;23;20337;-90
2021/08/18 18:03:31;;;;;;;0.30;0.20;;;17.80;99.90;;;;;;6232224;23;20518;-90
2021/08/18 18:05:58;;;;;;;0.00;0.00;;;17.70;99.90;;;;;;6255968;23;20016;-92
2021/08/18 18:08:24;;;;;;;0.00;0.00;;;17.70;99.90;;;;;;6289639;23;20008;-90
2021/08/18 18:10:52;;;;;;;0.00;0.00;;;17.70;99.90;;;;;;6264917;23;20016;-96
2021/08/18 18:13:19;;;;;;;1.17;0.30;;;17.70;99.90;;;;;;6290236;22;20012;-94
2021/08/18 18:15:48;;;;;;;0.13;0.13;;;17.60;99.90;;;;;;6265635;23;20024;-92
2021/08/18 18:18:14;;;;;;;0.05;0.05;;;17.60;99.90;;;;;;6265239;23;20015;-93
2021/08/18 18:20:44;;;;;;;0.00;0.00;;;17.50;99.90;;;;;;6240933;23;20146;-94
2021/08/18 18:23:12;;;;;;;0.20;0.10;;;17.50;99.90;;;;;;6291023;23;20043;-93
2021/08/18 18:25:40;;;;;;;0.10;0.10;;;17.50;99.90;;;;;;6209393;23;20016;-93
2021/08/18 18:28:07;;;;;;;0.10;0.10;;;17.40;99.90;;;;;;6285309;23;20015;-94
2021/08/18 18:30:34;;;;;;;0.00;0.00;;;17.40;99.90;;;;;;6265443;23;20012;-95
2021/08/18 18:33:03;;;;;;;0.05;0.00;;;17.40;99.90;;;;;;6265414;23;20012;-95
2021/08/18 18:35:49;;;;;;;0.00;0.00;;;17.30;99.90;;;;;;6239761;23;20020;-95
2021/08/18 18:38:28;;;;;;;0.00;0.00;;;17.30;99.90;;;;;;6240599;23;20019;-94
2021/08/18 18:41:01;;;;;;;0.00;0.00;;;17.00;99.90;;;;;;6234611;23;20067;-94